»·PEaware :: N322TH KDLS-KYKM

N322TH :: KDLS-KYKM

FLIGHT INFORMATION

Flight Status: Arrived
Operator: Privately registered:
United States
More flights under this callsign
Pilot: Thomas H. (23074)
Aircraft: CESSNA 172 SKYHAWK
(C172)
More flights by this aircraft type
Origin: KDLS Columbia Gorge Regl/The Dalle
United States
Destination: KYKM Yakima Air Term/Mcallister
United States
More flights between these airports :: More routes between these airports
Route: +DALLS1 LTJ LTJ352 SIMCO
File this flight plan on PilotEdge
Remarks:
Altitude:
(Current/Filed)
9,000ft
Speed:
(Current/Filed)
115kts
Departed: 11-Feb-19 10:14 AM
Arrived: 11-Feb-19 11:16 AM
Distance/Time
Traveled:
63nm/1:02
Distance/Time
To Go:
Arrived

Flight Plot

Page will automatically refresh every two minutes.

Flight plan parsing failed; only flown route is shown


Map Options




Map Legend


Flown Route
Filed Route
Departure Airport
Arrival Airport
Navaid (VOR, NDB)
Fix

Horizontal Profiles

Position Reports

Time Latitude Longitude Heading Altitude Ground
Speed
11-Feb-19 10:09 45.618968 -121.173380 106 251ft 0kts
11-Feb-19 10:10 45.619256 -121.174308 269 251ft 9kts
11-Feb-19 10:11 45.620068 -121.176921 314 251ft 0kts
11-Feb-19 10:12 45.620524 -121.177600 334 251ft 5kts
11-Feb-19 10:13 45.619198 -121.156938 95 665ft 89kts
11-Feb-19 10:14 45.606025 -121.128147 128 1683ft 86kts
11-Feb-19 10:15 45.584045 -121.122410 187 2535ft 90kts
11-Feb-19 10:16 45.559351 -121.123078 192 3422ft 88kts
11-Feb-19 10:17 45.534744 -121.125167 130 4251ft 90kts
11-Feb-19 10:18 45.549491 -121.109255 9 4902ft 80kts
11-Feb-19 10:19 45.569568 -121.103160 2 5702ft 75kts
11-Feb-19 10:20 45.589913 -121.101226 358 6462ft 72kts
11-Feb-19 10:21 45.610749 -121.101444 358 7144ft 75kts
11-Feb-19 10:22 45.631891 -121.100729 358 7791ft 77kts
11-Feb-19 10:23 45.653475 -121.100875 9 8403ft 78kts
11-Feb-19 10:24 45.675301 -121.099460 358 8878ft 81kts
11-Feb-19 10:25 45.699053 -121.098911 4 8981ft 87kts
11-Feb-19 10:26 45.723782 -121.094449 12 9125ft 88kts
11-Feb-19 10:27 45.750141 -121.087042 9 9023ft 100kts
11-Feb-19 10:28 45.777588 -121.076879 13 8936ft 106kts
11-Feb-19 10:29 45.806035 -121.068372 6 8911ft 104kts
11-Feb-19 10:30 45.834570 -121.060888 14 8882ft 104kts
11-Feb-19 10:31 45.862932 -121.051543 12 8859ft 104kts
11-Feb-19 10:32 45.890885 -121.040439 11 8843ft 104kts
11-Feb-19 10:33 45.919141 -121.031139 11 8832ft 104kts
11-Feb-19 10:34 45.947456 -121.022156 12 8823ft 104kts
11-Feb-19 10:35 45.976076 -121.014588 13 8813ft 104kts
11-Feb-19 10:36 46.004388 -121.005746 10 8813ft 104kts
11-Feb-19 10:37 46.032810 -120.996839 14 8813ft 104kts
11-Feb-19 10:38 46.060988 -120.986614 12 8810ft 104kts
11-Feb-19 10:39 46.089141 -120.976882 12 8809ft 104kts
11-Feb-19 10:40 46.117708 -120.967825 14 8811ft 105kts
11-Feb-19 10:41 46.146208 -120.957031 13 8820ft 106kts
11-Feb-19 10:42 46.174979 -120.947146 13 8829ft 107kts
11-Feb-19 10:43 46.204380 -120.938957 13 8833ft 108kts
11-Feb-19 10:44 46.227335 -120.914883 80 8482ft 114kts
11-Feb-19 10:45 46.233743 -120.868667 72 7920ft 114kts
11-Feb-19 10:46 46.238540 -120.822274 79 7238ft 117kts
11-Feb-19 10:47 46.243696 -120.776276 78 6642ft 116kts
11-Feb-19 10:48 46.249493 -120.730701 77 6075ft 115kts
11-Feb-19 10:49 46.254549 -120.685901 79 5933ft 114kts
11-Feb-19 10:50 46.262554 -120.641096 68 5943ft 115kts
11-Feb-19 10:51 46.271556 -120.596651 71 5970ft 115kts
11-Feb-19 10:52 46.279866 -120.551703 75 5994ft 115kts
11-Feb-19 10:53 46.286924 -120.506427 75 5993ft 115kts
11-Feb-19 10:54 46.293651 -120.460885 78 5981ft 115kts
11-Feb-19 10:56 46.300500 -120.415389 73 5963ft 115kts
11-Feb-19 10:57 46.308644 -120.370543 73 5946ft 115kts
11-Feb-19 10:58 46.315527 -120.325050 77 5932ft 115kts
11-Feb-19 10:59 46.323541 -120.280037 74 5914ft 115kts
11-Feb-19 11:00 46.330494 -120.234569 76 5901ft 115kts
11-Feb-19 11:01 46.345656 -120.200282 9 5868ft 115kts
11-Feb-19 11:02 46.376591 -120.190654 13 5870ft 114kts
11-Feb-19 11:03 46.406603 -120.175686 23 5656ft 116kts
11-Feb-19 11:04 46.437004 -120.160104 19 5132ft 116kts
11-Feb-19 11:05 46.467569 -120.150380 335 4594ft 118kts
11-Feb-19 11:06 46.481017 -120.191851 289 4301ft 118kts
11-Feb-19 11:07 46.490871 -120.235554 287 4311ft 112kts
11-Feb-19 11:08 46.501063 -120.278368 293 4340ft 112kts
11-Feb-19 11:09 46.513214 -120.320082 293 4378ft 112kts
11-Feb-19 11:10 46.523222 -120.362846 289 4190ft 106kts
11-Feb-19 11:11 46.533794 -120.402883 285 3568ft 106kts
11-Feb-19 11:12 46.541675 -120.438033 278 3091ft 75kts
11-Feb-19 11:13 46.548324 -120.465318 291 2365ft 70kts
11-Feb-19 11:13 46.554292 -120.487688 286 1768ft 71kts
11-Feb-19 11:15 46.562484 -120.518544 292 1333ft 67kts
11-Feb-19 11:16 46.566703 -120.536341 294 1103ft 14kts
11-Feb-19 11:16 46.568364 -120.539460 51 1103ft 0kts

Navigation Log

Ident Type
Flight plan parsing failed, navigation log unavailable